sensor_id;sensor_type;location;lat;lon;timestamp;P1;durP1;ratioP1;P2;durP2;ratioP2
21630;SDS011;10977;46.802;11.952;2022-07-03T16:24:28;6.07;;;4.93;;
21630;SDS011;10977;46.802;11.952;2022-07-03T16:26:54;4.45;;;4.05;;
21630;SDS011;10977;46.802;11.952;2022-07-03T16:29:20;3.50;;;3.20;;
21630;SDS011;10977;46.802;11.952;2022-07-03T16:31:47;3.65;;;2.88;;
21630;SDS011;10977;46.802;11.952;2022-07-03T16:34:17;7.43;;;2.50;;
21630;SDS011;10977;46.802;11.952;2022-07-03T16:36:51;2.85;;;2.45;;
21630;SDS011;10977;46.802;11.952;2022-07-03T16:39:37;3.97;;;2.25;;
21630;SDS011;10977;46.802;11.952;2022-07-03T16:42:05;3.22;;;2.45;;
21630;SDS011;10977;46.802;11.952;2022-07-03T16:44:32;3.20;;;2.30;;
21630;SDS011;10977;46.802;11.952;2022-07-03T16:47:01;3.00;;;2.30;;
21630;SDS011;10977;46.802;11.952;2022-07-03T16:49:30;4.47;;;2.35;;
21630;SDS011;10977;46.802;11.952;2022-07-03T16:52:01;2.60;;;2.40;;
21630;SDS011;10977;46.802;11.952;2022-07-03T16:54:29;3.50;;;2.05;;
21630;SDS011;10977;46.802;11.952;2022-07-03T16:56:55;2.83;;;2.63;;
21630;SDS011;10977;46.802;11.952;2022-07-03T16:59:21;2.67;;;2.28;;
21630;SDS011;10977;46.802;11.952;2022-07-03T17:01:49;2.30;;;2.10;;
21630;SDS011;10977;46.802;11.952;2022-07-03T17:04:18;3.25;;;2.50;;
21630;SDS011;10977;46.802;11.952;2022-07-03T17:06:44;2.65;;;2.42;;
21630;SDS011;10977;46.802;11.952;2022-07-03T17:09:11;2.70;;;2.50;;
21630;SDS011;10977;46.802;11.952;2022-07-03T17:11:39;3.83;;;2.75;;
21630;SDS011;10977;46.802;11.952;2022-07-03T17:14:06;4.53;;;2.97;;
21630;SDS011;10977;46.802;11.952;2022-07-03T17:16:32;3.15;;;2.78;;
21630;SDS011;10977;46.802;11.952;2022-07-03T17:19:03;2.90;;;2.60;;
21630;SDS011;10977;46.802;11.952;2022-07-03T17:21:36;3.50;;;3.20;;
21630;SDS011;10977;46.802;11.952;2022-07-03T17:24:09;4.00;;;2.50;;
21630;SDS011;10977;46.802;11.952;2022-07-03T17:26:35;2.70;;;2.50;;
21630;SDS011;10977;46.802;11.952;2022-07-03T17:29:05;2.88;;;2.53;;
21630;SDS011;10977;46.802;11.952;2022-07-03T17:31:39;3.05;;;2.60;;
21630;SDS011;10977;46.802;11.952;2022-07-03T17:34:07;4.35;;;3.08;;
21630;SDS011;10977;46.802;11.952;2022-07-03T17:36:34;3.60;;;3.10;;
21630;SDS011;10977;46.802;11.952;2022-07-03T17:39:02;3.42;;;3.10;;
21630;SDS011;10977;46.802;11.952;2022-07-03T17:41:28;4.15;;;3.08;;
21630;SDS011;10977;46.802;11.952;2022-07-03T17:43:56;3.80;;;3.20;;
21630;SDS011;10977;46.802;11.952;2022-07-03T17:46:23;4.45;;;3.47;;
21630;SDS011;10977;46.802;11.952;2022-07-03T17:48:49;4.15;;;2.97;;
21630;SDS011;10977;46.802;11.952;2022-07-03T17:51:17;4.05;;;3.03;;
21630;SDS011;10977;46.802;11.952;2022-07-03T17:53:44;4.20;;;3.30;;
21630;SDS011;10977;46.802;11.952;2022-07-03T17:56:11;3.20;;;2.90;;
21630;SDS011;10977;46.802;11.952;2022-07-03T17:58:41;3.70;;;3.30;;
21630;SDS011;10977;46.802;11.952;2022-07-03T18:01:08;4.57;;;3.45;;
21630;SDS011;10977;46.802;11.952;2022-07-03T18:03:35;4.70;;;3.45;;
21630;SDS011;10977;46.802;11.952;2022-07-03T18:06:02;6.38;;;3.70;;
21630;SDS011;10977;46.802;11.952;2022-07-03T18:08:38;4.57;;;3.97;;
21630;SDS011;10977;46.802;11.952;2022-07-03T18:11:46;4.38;;;3.63;;
21630;SDS011;10977;46.802;11.952;2022-07-03T18:16:47;4.55;;;3.95;;
21630;SDS011;10977;46.802;11.952;2022-07-03T18:19:16;5.65;;;3.33;;
21630;SDS011;10977;46.802;11.952;2022-07-03T18:21:42;4.07;;;3.67;;
21630;SDS011;10977;46.802;11.952;2022-07-03T18:24:12;6.05;;;3.70;;
21630;SDS011;10977;46.802;11.952;2022-07-03T18:26:47;4.85;;;3.92;;
21630;SDS011;10977;46.802;11.952;2022-07-03T18:29:17;4.70;;;4.30;;
21630;SDS011;10977;46.802;11.952;2022-07-03T18:31:44;5.28;;;4.32;;
21630;SDS011;10977;46.802;11.952;2022-07-03T18:34:11;5.00;;;4.50;;
21630;SDS011;10977;46.802;11.952;2022-07-03T18:36:37;4.95;;;4.45;;
21630;SDS011;10977;46.802;11.952;2022-07-03T18:39:04;5.82;;;4.57;;
21630;SDS011;10977;46.802;11.952;2022-07-03T18:41:31;6.40;;;4.30;;
21630;SDS011;10977;46.802;11.952;2022-07-03T18:43:58;7.82;;;4.85;;
21630;SDS011;10977;46.802;11.952;2022-07-03T18:46:24;6.75;;;6.10;;
21630;SDS011;10977;46.802;11.952;2022-07-03T18:48:51;7.13;;;5.63;;
21630;SDS011;10977;46.802;11.952;2022-07-03T18:51:33;5.95;;;5.45;;
21630;SDS011;10977;46.802;11.952;2022-07-03T18:54:12;5.88;;;5.30;;
21630;SDS011;10977;46.802;11.952;2022-07-03T18:56:51;7.70;;;5.45;;
21630;SDS011;10977;46.802;11.952;2022-07-03T18:59:53;6.63;;;4.93;;
21630;SDS011;10977;46.802;11.952;2022-07-03T19:02:26;4.97;;;4.45;;
21630;SDS011;10977;46.802;11.952;2022-07-03T19:04:55;5.82;;;5.32;;
21630;SDS011;10977;46.802;11.952;2022-07-03T19:10:25;5.32;;;4.70;;
21630;SDS011;10977;46.802;11.952;2022-07-03T19:17:58;7.55;;;5.10;;
21630;SDS011;10977;46.802;11.952;2022-07-03T19:20:23;6.35;;;5.22;;
21630;SDS011;10977;46.802;11.952;2022-07-03T19:22:49;9.52;;;7.10;;
21630;SDS011;10977;46.802;11.952;2022-07-03T19:25:15;7.82;;;5.20;;
21630;SDS011;10977;46.802;11.952;2022-07-03T19:27:40;6.78;;;5.03;;
21630;SDS011;10977;46.802;11.952;2022-07-03T19:30:10;4.93;;;4.40;;
21630;SDS011;10977;46.802;11.952;2022-07-03T19:32:36;7.68;;;4.78;;
21630;SDS011;10977;46.802;11.952;2022-07-03T19:35:02;5.10;;;4.60;;
21630;SDS011;10977;46.802;11.952;2022-07-03T19:37:28;6.18;;;5.03;;
21630;SDS011;10977;46.802;11.952;2022-07-03T19:39:53;5.53;;;5.03;;
21630;SDS011;10977;46.802;11.952;2022-07-03T19:42:19;6.35;;;5.35;;
21630;SDS011;10977;46.802;11.952;2022-07-03T19:44:44;5.75;;;5.15;;
21630;SDS011;10977;46.802;11.952;2022-07-03T19:47:09;7.03;;;5.43;;
21630;SDS011;10977;46.802;11.952;2022-07-03T19:49:35;6.10;;;4.70;;
21630;SDS011;10977;46.802;11.952;2022-07-03T19:52:01;5.25;;;4.72;;
21630;SDS011;10977;46.802;11.952;2022-07-03T19:54:26;6.38;;;5.25;;
21630;SDS011;10977;46.802;11.952;2022-07-03T19:56:51;10.13;;;4.63;;
21630;SDS011;10977;46.802;11.952;2022-07-03T19:59:17;5.80;;;5.20;;
21630;SDS011;10977;46.802;11.952;2022-07-03T20:01:42;6.82;;;4.88;;
21630;SDS011;10977;46.802;11.952;2022-07-03T20:04:09;5.47;;;4.97;;
21630;SDS011;10977;46.802;11.952;2022-07-03T20:06:34;6.28;;;5.22;;
21630;SDS011;10977;46.802;11.952;2022-07-03T20:08:59;6.18;;;4.75;;
21630;SDS011;10977;46.802;11.952;2022-07-03T20:11:26;7.70;;;5.18;;
21630;SDS011;10977;46.802;11.952;2022-07-03T20:13:52;5.20;;;4.70;;
21630;SDS011;10977;46.802;11.952;2022-07-03T20:16:17;7.95;;;5.50;;
21630;SDS011;10977;46.802;11.952;2022-07-03T20:18:43;6.43;;;4.43;;
21630;SDS011;10977;46.802;11.952;2022-07-03T20:21:08;5.50;;;4.95;;
21630;SDS011;10977;46.802;11.952;2022-07-03T20:23:34;5.82;;;4.70;;
21630;SDS011;10977;46.802;11.952;2022-07-03T20:26:19;5.07;;;4.15;;
21630;SDS011;10977;46.802;11.952;2022-07-03T20:28:44;6.32;;;4.53;;
21630;SDS011;10977;46.802;11.952;2022-07-03T20:31:10;5.30;;;4.80;;
21630;SDS011;10977;46.802;11.952;2022-07-03T20:33:35;5.75;;;4.97;;
21630;SDS011;10977;46.802;11.952;2022-07-03T20:36:01;5.75;;;5.18;;
21630;SDS011;10977;46.802;11.952;2022-07-03T20:38:27;5.85;;;4.43;;
21630;SDS011;10977;46.802;11.952;2022-07-03T20:40:52;5.32;;;4.82;;
21630;SDS011;10977;46.802;11.952;2022-07-03T20:43:18;4.68;;;4.28;;
21630;SDS011;10977;46.802;11.952;2022-07-03T20:45:43;4.90;;;4.50;;
21630;SDS011;10977;46.802;11.952;2022-07-03T20:48:08;6.82;;;4.30;;
21630;SDS011;10977;46.802;11.952;2022-07-03T20:50:34;5.20;;;4.70;;
21630;SDS011;10977;46.802;11.952;2022-07-03T20:52:59;6.25;;;4.40;;
21630;SDS011;10977;46.802;11.952;2022-07-03T20:55:26;5.20;;;4.70;;
21630;SDS011;10977;46.802;11.952;2022-07-03T20:57:52;5.32;;;4.50;;
21630;SDS011;10977;46.802;11.952;2022-07-03T21:00:17;5.00;;;4.43;;
21630;SDS011;10977;46.802;11.952;2022-07-03T21:02:43;6.80;;;4.90;;
21630;SDS011;10977;46.802;11.952;2022-07-03T21:05:08;5.82;;;5.15;;
21630;SDS011;10977;46.802;11.952;2022-07-03T21:07:34;8.43;;;4.55;;
21630;SDS011;10977;46.802;11.952;2022-07-03T21:10:00;5.18;;;4.70;;
21630;SDS011;10977;46.802;11.952;2022-07-03T21:12:25;4.68;;;4.28;;
21630;SDS011;10977;46.802;11.952;2022-07-03T21:14:51;8.07;;;4.55;;
21630;SDS011;10977;46.802;11.952;2022-07-03T21:17:16;4.80;;;4.30;;
21630;SDS011;10977;46.802;11.952;2022-07-03T21:19:42;7.25;;;5.07;;
21630;SDS011;10977;46.802;11.952;2022-07-03T21:22:07;5.50;;;4.68;;
21630;SDS011;10977;46.802;11.952;2022-07-03T21:24:33;12.13;;;4.60;;
21630;SDS011;10977;46.802;11.952;2022-07-03T21:26:58;5.88;;;4.70;;
21630;SDS011;10977;46.802;11.952;2022-07-03T21:29:23;6.15;;;4.38;;
21630;SDS011;10977;46.802;11.952;2022-07-03T21:31:50;5.88;;;4.93;;
21630;SDS011;10977;46.802;11.952;2022-07-03T21:34:16;5.25;;;4.75;;
21630;SDS011;10977;46.802;11.952;2022-07-03T21:36:42;6.93;;;5.00;;
21630;SDS011;10977;46.802;11.952;2022-07-03T21:39:08;6.65;;;4.53;;
21630;SDS011;10977;46.802;11.952;2022-07-03T21:41:34;5.57;;;4.97;;
21630;SDS011;10977;46.802;11.952;2022-07-03T21:44:00;5.70;;;4.95;;
21630;SDS011;10977;46.802;11.952;2022-07-03T21:46:26;5.25;;;4.45;;
21630;SDS011;10977;46.802;11.952;2022-07-03T21:48:51;5.53;;;5.03;;
21630;SDS011;10977;46.802;11.952;2022-07-03T21:51:16;5.50;;;5.00;;
21630;SDS011;10977;46.802;11.952;2022-07-03T21:53:42;6.18;;;4.20;;
21630;SDS011;10977;46.802;11.952;2022-07-03T21:56:07;6.82;;;4.90;;
21630;SDS011;10977;46.802;11.952;2022-07-03T21:58:33;4.85;;;4.45;;
21630;SDS011;10977;46.802;11.952;2022-07-03T22:00:58;5.82;;;4.60;;
21630;SDS011;10977;46.802;11.952;2022-07-03T22:03:24;5.30;;;4.80;;
21630;SDS011;10977;46.802;11.952;2022-07-03T22:05:50;11.02;;;4.93;;
21630;SDS011;10977;46.802;11.952;2022-07-03T22:08:16;5.20;;;4.63;;
21630;SDS011;10977;46.802;11.952;2022-07-03T22:10:45;6.35;;;5.10;;
21630;SDS011;10977;46.802;11.952;2022-07-03T22:13:12;5.38;;;4.80;;
21630;SDS011;10977;46.802;11.952;2022-07-03T22:15:39;5.53;;;5.03;;
21630;SDS011;10977;46.802;11.952;2022-07-03T22:18:05;6.55;;;5.05;;
21630;SDS011;10977;46.802;11.952;2022-07-03T22:20:30;7.43;;;5.47;;
21630;SDS011;10977;46.802;11.952;2022-07-03T22:22:56;8.88;;;4.85;;
21630;SDS011;10977;46.802;11.952;2022-07-03T22:25:22;6.15;;;5.20;;
21630;SDS011;10977;46.802;11.952;2022-07-03T22:27:47;5.60;;;5.10;;
21630;SDS011;10977;46.802;11.952;2022-07-03T22:30:14;6.72;;;5.65;;
21630;SDS011;10977;46.802;11.952;2022-07-03T22:32:41;5.47;;;4.97;;
21630;SDS011;10977;46.802;11.952;2022-07-03T22:35:08;14.38;;;5.03;;
21630;SDS011;10977;46.802;11.952;2022-07-03T22:37:34;5.80;;;4.80;;
21630;SDS011;10977;46.802;11.952;2022-07-03T22:40:00;5.32;;;4.82;;
21630;SDS011;10977;46.802;11.952;2022-07-03T22:42:25;6.32;;;4.70;;
21630;SDS011;10977;46.802;11.952;2022-07-03T22:44:50;5.70;;;5.10;;
21630;SDS011;10977;46.802;11.952;2022-07-03T22:47:16;6.43;;;5.00;;
21630;SDS011;10977;46.802;11.952;2022-07-03T22:49:41;8.55;;;4.90;;
21630;SDS011;10977;46.802;11.952;2022-07-03T22:52:07;4.80;;;4.30;;
21630;SDS011;10977;46.802;11.952;2022-07-03T22:54:33;5.32;;;4.80;;
21630;SDS011;10977;46.802;11.952;2022-07-03T22:57:02;5.47;;;4.47;;
21630;SDS011;10977;46.802;11.952;2022-07-03T22:59:28;6.30;;;5.13;;
21630;SDS011;10977;46.802;11.952;2022-07-03T23:01:53;5.25;;;4.72;;
21630;SDS011;10977;46.802;11.952;2022-07-03T23:04:19;5.13;;;4.63;;
21630;SDS011;10977;46.802;11.952;2022-07-03T23:06:45;4.88;;;4.45;;
21630;SDS011;10977;46.802;11.952;2022-07-03T23:09:10;5.47;;;4.55;;
21630;SDS011;10977;46.802;11.952;2022-07-03T23:11:37;5.15;;;4.65;;
21630;SDS011;10977;46.802;11.952;2022-07-03T23:14:03;9.90;;;5.20;;
21630;SDS011;10977;46.802;11.952;2022-07-03T23:16:29;5.20;;;4.70;;
21630;SDS011;10977;46.802;11.952;2022-07-03T23:18:55;8.52;;;4.65;;
21630;SDS011;10977;46.802;11.952;2022-07-03T23:21:20;6.00;;;4.70;;
21630;SDS011;10977;46.802;11.952;2022-07-03T23:23:46;5.72;;;4.30;;
21630;SDS011;10977;46.802;11.952;2022-07-03T23:26:11;6.03;;;4.70;;
21630;SDS011;10977;46.802;11.952;2022-07-03T23:28:37;9.02;;;5.45;;
21630;SDS011;10977;46.802;11.952;2022-07-03T23:31:02;6.65;;;4.43;;
21630;SDS011;10977;46.802;11.952;2022-07-03T23:33:28;5.20;;;4.70;;
21630;SDS011;10977;46.802;11.952;2022-07-03T23:35:55;5.82;;;5.22;;
21630;SDS011;10977;46.802;11.952;2022-07-03T23:38:21;5.18;;;4.60;;
21630;SDS011;10977;46.802;11.952;2022-07-03T23:40:46;6.13;;;4.63;;
21630;SDS011;10977;46.802;11.952;2022-07-03T23:43:12;7.07;;;4.90;;
21630;SDS011;10977;46.802;11.952;2022-07-03T23:45:37;6.70;;;4.30;;
21630;SDS011;10977;46.802;11.952;2022-07-03T23:48:02;5.88;;;4.43;;
21630;SDS011;10977;46.802;11.952;2022-07-03T23:50:28;5.55;;;4.00;;
21630;SDS011;10977;46.802;11.952;2022-07-03T23:53:00;5.53;;;4.13;;
21630;SDS011;10977;46.802;11.952;2022-07-03T23:55:32;7.18;;;3.97;;
21630;SDS011;10977;46.802;11.952;2022-07-03T23:58:00;5.00;;;4.15;;
